Main page
METAR-TAF:

METAR-TAF

Airports :

Gibraltar International Airport

Gibraltar, Gibraltar

latitude: 36-09N, longitude: 005-21W, elevation: 5 m

Current weather observation

The report was made 20 minutes ago, at 10:50 UTC
Wind 5 kt from the South
Temperature 18°C
Humidity 52%
Pressure 1024 hPa
Visibility 10 km or more
no clouds below 1500 m and no cumulonimbus

METAR: LXGB 261050Z 18005KT CAVOK 18/08 Q1024 NOSIG

Time: 13:10 (11:10 UTC)

Forecast

The report was made 3 hours and 28 minutes ago, at 07:42 UTC
Forecast valid from 26 at 09 UTC to 26 at 18 UTC
Wind 5 kt from variable directions
Visibility 10 km or more
no clouds below 1500 m and no cumulonimbus

TAF: LXGB 260742Z 2609/2618 VRB05KT CAVOK

Weather observations and forecasts of more than 4000 airports (METAR and TAF reports).

The available stations are represented by yellow and red dots on the map.

Hover mouse over dot to see the name of the station.

Then click to see weather observations and forecasts.

To change the map : click on the green buttons with a black cross to zoom in, on the green button with a dash to zoom out, or on the green arrows for adjacent maps.


METAR-TAF: